Time;durP1;ratioP1;P1;durP2;ratioP2;P2;SDS_P1;SDS_P2;PMS_P1;PMS_P2;Temp;Humidity;BMP_temperature;BMP_pressure;BME280_temperature;BME280_humidity;BME280_pressure;Samples;Min_cycle;Max_cycle;Signal;HPM_P1;HPM_P2
2022/08/26 00:01:22;;;;;;;7.53;2.30;;;;;;;25.34;64.48;98182.91;6015119;23;20158;-88
2022/08/26 00:03:48;;;;;;;10.27;2.83;;;;;;;25.65;63.43;98186.00;6040046;23;20153;-88
2022/08/26 00:06:14;;;;;;;10.27;2.30;;;;;;;25.72;62.69;98186.84;6039809;23;20468;-88
2022/08/26 00:08:39;;;;;;;7.77;2.20;;;;;;;25.75;62.52;98188.31;6039708;23;20176;-88
2022/08/26 00:11:05;;;;;;;17.90;3.23;;;;;;;25.65;62.53;98186.00;6039844;23;20157;-87
2022/08/26 00:13:32;;;;;;;6.67;2.07;;;;;;;25.49;62.97;98187.16;6015005;23;20158;-87
2022/08/26 00:15:57;;;;;;;8.57;2.63;;;;;;;25.48;63.31;98185.47;6039758;23;20209;-87
2022/08/26 00:18:23;;;;;;;13.30;3.00;;;;;;;25.46;62.77;98186.72;6039775;23;20154;-87
2022/08/26 00:20:49;;;;;;;4.80;2.03;;;;;;;25.42;62.27;98191.59;6039724;23;20150;-88
2022/08/26 00:23:15;;;;;;;8.40;2.73;;;;;;;25.46;62.48;98189.41;6039733;23;20150;-89
2022/08/26 00:25:40;;;;;;;11.20;2.40;;;;;;;25.64;61.74;98189.69;6039644;23;20184;-88
2022/08/26 00:28:06;;;;;;;8.23;2.37;;;;;;;25.47;61.91;98188.38;6039688;23;20460;-88
2022/08/26 00:30:33;;;;;;;9.17;2.43;;;;;;;25.42;61.54;98196.16;6040295;23;20194;-88
2022/08/26 00:32:59;;;;;;;9.60;2.17;;;;;;;25.47;60.52;98193.75;6039975;23;20206;-88
2022/08/26 00:35:25;;;;;;;10.13;2.37;;;;;;;25.43;60.52;98193.25;6039485;23;20236;-87
2022/08/26 00:37:51;;;;;;;12.27;2.87;;;;;;;25.69;60.37;98197.97;6040027;23;20138;-88
2022/08/26 00:40:22;;;;;;;11.83;2.63;;;;;;;25.75;60.61;98199.88;6039615;23;20154;-88
2022/08/26 00:42:48;;;;;;;8.97;2.27;;;;;;;25.75;61.60;98199.88;6039969;23;20165;-88
2022/08/26 00:45:15;;;;;;;6.57;2.67;;;;;;;25.90;62.24;98205.09;6039498;23;20582;-88
2022/08/26 00:47:47;;;;;;;4.57;1.67;;;;;;;25.89;62.64;98209.63;6039616;23;20153;-89
2022/08/26 00:50:21;;;;;;;7.33;2.73;;;;;;;25.96;62.71;98199.78;6039897;23;20154;-89
2022/08/26 00:52:48;;;;;;;8.90;2.90;;;;;;;25.91;62.72;98204.91;6039955;23;20150;-88
2022/08/26 00:55:16;;;;;;;7.00;3.20;;;;;;;25.94;62.09;98195.63;6039521;23;20209;-88
2022/08/26 00:57:43;;;;;;;8.80;1.87;;;;;;;25.93;62.37;98192.09;6039535;23;20150;-88
2022/08/26 01:00:16;;;;;;;4.47;2.07;;;;;;;25.89;62.39;98193.53;6040164;23;20180;-88
2022/08/26 01:02:42;;;;;;;7.73;2.63;;;;;;;25.85;62.55;98200.34;6040245;23;20152;-88
2022/08/26 01:05:10;;;;;;;13.70;2.57;;;;;;;25.87;62.08;98190.22;6040095;23;20205;-88
2022/08/26 01:07:36;;;;;;;6.00;1.73;;;;;;;25.89;62.16;98188.16;6039788;23;20150;-88
2022/08/26 01:10:07;;;;;;;5.17;2.03;;;;;;;25.84;62.20;98187.94;6039510;23;20158;-88
2022/08/26 01:12:37;;;;;;;11.87;2.67;;;;;;;25.87;62.22;98200.97;6039846;23;20615;-89
2022/08/26 01:15:04;;;;;;;6.57;2.00;;;;;;;25.93;61.55;98192.09;6039491;23;20138;-88
2022/08/26 01:17:29;;;;;;;9.53;2.80;;;;;;;25.94;61.46;98196.44;6039425;23;20150;-88
2022/08/26 01:20:05;;;;;;;6.07;2.50;;;;;;;25.91;61.40;98190.66;6039413;23;20164;-88
2022/08/26 01:22:55;;;;;;;9.90;2.00;;;;;;;25.82;61.19;98200.72;6041703;23;20164;-88
2022/08/26 01:25:24;;;;;;;6.73;2.60;;;;;;;25.73;61.76;98198.41;6041863;23;20181;-88
2022/08/26 01:27:52;;;;;;;11.53;2.53;;;;;;;25.67;61.26;98200.03;6016482;23;20236;-88
2022/08/26 01:30:19;;;;;;;8.77;2.20;;;;;;;25.48;62.25;98198.06;6041259;23;20220;-88
2022/08/26 01:32:47;;;;;;;10.37;1.90;;;;;;;25.55;61.66;98196.28;6041212;23;20249;-88
2022/08/26 01:35:13;;;;;;;6.43;1.87;;;;;;;25.43;62.13;98201.31;6041027;23;21058;-88
2022/08/26 01:37:39;;;;;;;9.03;2.63;;;;;;;25.55;61.58;98205.13;6041513;23;20162;-88
2022/08/26 01:40:08;;;;;;;8.50;2.00;;;;;;;25.51;61.32;98200.34;6041430;23;20154;-88
2022/08/26 01:42:34;;;;;;;8.07;2.40;;;;;;;25.46;61.21;98202.81;6040979;23;20625;-88
2022/08/26 01:45:09;;;;;;;8.13;2.13;;;;;;;25.47;61.52;98209.84;6040983;23;20173;-88
2022/08/26 01:47:36;;;;;;;9.27;2.07;;;;;;;25.43;61.33;98209.38;6041413;23;20137;-87
2022/08/26 01:50:08;;;;;;;9.13;3.17;;;;;;;25.44;61.57;98219.09;6041061;23;20154;-88
2022/08/26 01:52:38;;;;;;;7.27;2.20;;;;;;;25.35;61.65;98217.56;6041040;23;20142;-88
2022/08/26 01:55:05;;;;;;;16.40;2.23;;;;;;;25.37;61.25;98225.41;6041727;23;20310;-88
2022/08/26 01:57:31;;;;;;;6.60;1.77;;;;;;;25.33;61.55;98224.16;6041010;23;20226;-88
2022/08/26 02:00:00;;;;;;;11.90;3.07;;;;;;;25.39;61.21;98226.06;6040956;23;20629;-88
2022/08/26 02:02:26;;;;;;;10.33;2.17;;;;;;;25.45;61.20;98219.88;6040928;23;20154;-88
2022/08/26 02:04:58;;;;;;;9.67;3.20;;;;;;;25.55;60.59;98217.75;6041178;23;20513;-88
2022/08/26 02:07:25;;;;;;;11.60;2.23;;;;;;;25.48;60.58;98211.47;6040966;23;20209;-88
2022/08/26 02:09:50;;;;;;;9.33;2.10;;;;;;;25.46;61.02;98214.38;6041517;23;20180;-88
2022/08/26 02:12:18;;;;;;;9.43;1.73;;;;;;;25.48;60.58;98214.16;6041208;23;20593;-88
2022/08/26 02:14:52;;;;;;;8.97;1.67;;;;;;;25.43;60.78;98206.69;6040840;23;20184;-88
2022/08/26 02:17:24;;;;;;;8.77;2.93;;;;;;;25.35;60.86;98196.09;6040863;23;20197;-88
2022/08/26 02:19:50;;;;;;;10.63;2.73;;;;;;;25.11;61.93;98203.75;6041834;23;20137;-88
2022/08/26 02:22:19;;;;;;;12.87;2.67;;;;;;;25.08;61.85;98206.84;6041086;23;20169;-87
2022/08/26 02:24:54;;;;;;;8.10;1.63;;;;;;;25.05;62.25;98211.56;6040658;23;20178;-88
2022/08/26 02:27:29;;;;;;;6.63;2.73;;;;;;;24.91;62.03;98206.31;6041433;23;20150;-88
2022/08/26 02:29:59;;;;;;;8.90;2.43;;;;;;;24.91;62.42;98200.94;6041086;23;20149;-88
2022/08/26 02:32:24;;;;;;;8.03;2.17;;;;;;;24.85;62.16;98199.84;6040660;23;20158;-87
2022/08/26 02:34:50;;;;;;;4.47;2.37;;;;;;;24.78;62.36;98203.47;6040941;23;20160;-90
2022/08/26 02:37:16;;;;;;;11.40;2.13;;;;;;;24.72;62.00;98199.72;6016107;23;20157;-91
2022/08/26 02:39:42;;;;;;;8.17;2.00;;;;;;;24.72;61.76;98198.88;6040863;23;20173;-91
2022/08/26 02:42:08;;;;;;;5.97;1.97;;;;;;;24.79;61.51;98195.25;6040870;23;20233;-90
2022/08/26 02:44:34;;;;;;;9.97;2.43;;;;;;;24.86;61.53;98200.69;6015827;23;20232;-91
2022/08/26 02:46:59;;;;;;;13.87;2.00;;;;;;;24.93;60.92;98197.03;6015977;23;20158;-90
2022/08/26 02:49:26;;;;;;;8.23;2.30;;;;;;;24.85;60.95;98202.53;6016017;23;20154;-90
2022/08/26 02:51:51;;;;;;;11.07;2.67;;;;;;;24.87;60.43;98199.66;6041030;23;20167;-91
2022/08/26 02:54:20;;;;;;;9.83;2.03;;;;;;;24.92;60.33;98205.28;6040822;23;20667;-91
2022/08/26 02:56:46;;;;;;;10.70;2.50;;;;;;;24.98;59.80;98202.66;6015908;23;20154;-90
2022/08/26 02:59:12;;;;;;;10.30;1.97;;;;;;;24.98;59.47;98194.59;6040755;23;20153;-91
2022/08/26 03:01:39;;;;;;;5.40;1.80;;;;;;;25.04;59.35;98206.41;6040801;23;20184;-91
2022/08/26 03:04:08;;;;;;;12.43;2.13;;;;;;;24.97;59.10;98203.66;6040495;23;20541;-91
2022/08/26 03:06:34;;;;;;;8.73;1.80;;;;;;;25.00;58.42;98203.28;6015841;23;20189;-90
2022/08/26 03:09:00;;;;;;;7.23;1.57;;;;;;;25.08;58.30;98204.97;6015850;23;20185;-91
2022/08/26 03:11:25;;;;;;;8.97;1.87;;;;;;;25.16;58.21;98201.34;6015861;23;20583;-91
2022/08/26 03:13:51;;;;;;;3.43;1.80;;;;;;;25.16;57.93;98214.75;6040780;23;20149;-90
2022/08/26 03:16:17;;;;;;;11.43;2.27;;;;;;;25.21;57.44;98209.63;6040628;23;20164;-91
2022/08/26 03:18:43;;;;;;;6.47;2.60;;;;;;;25.17;57.41;98205.66;6040465;23;20225;-91
2022/08/26 03:21:11;;;;;;;15.10;2.13;;;;;;;25.07;57.01;98213.22;6040505;23;20154;-91
2022/08/26 03:23:38;;;;;;;9.67;1.97;;;;;;;25.08;57.09;98210.34;6040227;23;20154;-91
2022/08/26 03:26:05;;;;;;;13.97;2.50;;;;;;;25.22;56.24;98211.28;6015575;23;20193;-91
2022/08/26 03:28:30;;;;;;;10.97;2.33;;;;;;;25.26;56.03;98215.25;6041012;23;20153;-90
2022/08/26 03:30:56;;;;;;;6.57;2.00;;;;;;;25.30;55.59;98214.66;6015635;23;20496;-91
2022/08/26 03:33:23;;;;;;;7.30;1.60;;;;;;;25.35;55.40;98217.56;6040315;23;20547;-91
2022/08/26 03:35:51;;;;;;;10.13;2.03;;;;;;;25.40;55.10;98220.50;6040050;23;20197;-91
2022/08/26 03:38:21;;;;;;;9.53;2.67;;;;;;;25.36;55.22;98223.78;6015592;23;20237;-90
2022/08/26 03:40:46;;;;;;;8.33;2.00;;;;;;;25.38;55.88;98221.72;6015577;23;20150;-91
2022/08/26 03:43:14;;;;;;;13.30;2.73;;;;;;;25.36;54.82;98223.78;6040230;23;20237;-90
2022/08/26 03:45:40;;;;;;;9.97;2.23;;;;;;;25.32;54.31;98219.81;6040561;23;20184;-90
2022/08/26 03:48:06;;;;;;;12.97;2.73;;;;;;;25.29;53.92;98228.28;6040455;23;20150;-90
2022/08/26 03:50:32;;;;;;;9.17;2.20;;;;;;;25.29;54.02;98233.63;6015497;23;20158;-90
2022/08/26 03:52:58;;;;;;;8.50;1.77;;;;;;;25.33;53.68;98225.00;6040232;23;20181;-91
2022/08/26 03:55:27;;;;;;;7.53;2.47;;;;;;;25.35;53.17;98232.81;6040076;23;20161;-91
2022/08/26 03:57:52;;;;;;;7.13;1.40;;;;;;;25.39;52.95;98234.13;6015320;23;20165;-91
2022/08/26 04:00:19;;;;;;;9.87;2.30;;;;;;;25.44;52.75;98235.19;6040032;23;20150;-90
2022/08/26 04:02:49;;;;;;;8.27;2.37;;;;;;;25.44;52.80;98237.03;6040313;23;20166;-91
2022/08/26 04:05:17;;;;;;;4.20;1.67;;;;;;;25.49;52.04;98240.81;6040282;23;20201;-91
2022/08/26 04:07:43;;;;;;;4.80;1.50;;;;;;;25.52;51.70;98237.72;6040089;23;20167;-90
2022/08/26 04:10:11;;;;;;;4.30;1.80;;;;;;;25.53;51.46;98238.56;6039975;23;20157;-91
2022/08/26 04:12:37;;;;;;;9.10;1.40;;;;;;;25.55;51.80;98241.91;6015255;23;20639;-90
2022/08/26 04:15:06;;;;;;;4.63;1.37;;;;;;;25.62;51.43;98242.75;6039878;23;20146;-92
2022/08/26 04:17:34;;;;;;;12.20;1.40;;;;;;;25.64;51.21;98246.06;6038639;23;20216;-91
2022/08/26 04:20:00;;;;;;;9.50;2.20;;;;;;;25.68;51.70;98241.97;6038833;23;20582;-90
2022/08/26 04:22:25;;;;;;;8.07;2.23;;;;;;;25.67;51.51;98250.22;6039111;23;20153;-90
2022/08/26 04:24:51;;;;;;;6.53;1.90;;;;;;;25.70;51.46;98244.44;6039632;23;20614;-90
2022/08/26 04:27:17;;;;;;;6.83;1.57;;;;;;;25.72;51.29;98251.28;6039927;23;20182;-90
2022/08/26 04:29:42;;;;;;;14.60;2.30;;;;;;;25.76;51.00;98247.16;6015042;23;20212;-90
2022/08/26 04:32:08;;;;;;;11.33;1.73;;;;;;;25.81;51.31;98260.00;6040073;23;20226;-90
2022/08/26 04:34:34;;;;;;;4.90;1.53;;;;;;;25.88;50.86;98256.31;6039722;23;20150;-90
2022/08/26 04:37:00;;;;;;;5.73;1.80;;;;;;;25.92;50.42;98254.06;6039507;23;20480;-90
2022/08/26 04:39:26;;;;;;;7.23;1.80;;;;;;;25.97;50.52;98259.69;6014011;23;20157;-90
2022/08/26 04:41:55;;;;;;;6.47;1.37;;;;;;;26.01;50.02;98260.94;6039152;23;20154;-91
2022/08/26 04:44:23;;;;;;;6.40;1.97;;;;;;;26.10;49.94;98263.22;6014583;23;20564;-90
2022/08/26 04:46:49;;;;;;;7.57;1.70;;;;;;;26.09;50.05;98271.50;6039794;23;20229;-90
2022/08/26 04:49:14;;;;;;;12.03;1.47;;;;;;;26.10;49.05;98265.13;6039715;23;20522;-90
2022/08/26 04:51:40;;;;;;;11.10;1.80;;;;;;;26.27;49.24;98263.75;6039737;23;20154;-90
2022/08/26 04:54:06;;;;;;;15.50;2.80;;;;;;;26.33;49.18;98264.81;6039781;23;20541;-90
2022/08/26 04:56:35;;;;;;;12.67;2.00;;;;;;;26.38;48.73;98267.72;6040687;23;20221;-90
2022/08/26 04:59:04;;;;;;;9.00;1.60;;;;;;;26.54;48.85;98262.81;6016960;23;20161;-90
2022/08/26 05:01:30;;;;;;;8.07;1.30;;;;;;;26.59;48.53;98262.22;6016823;23;20157;-90
2022/08/26 05:03:57;;;;;;;7.27;1.83;;;;;;;26.68;48.45;98263.66;6041481;23;20221;-90
2022/08/26 05:06:23;;;;;;;8.93;2.10;;;;;;;26.79;47.42;98257.72;6042295;23;20153;-92
2022/08/26 05:08:48;;;;;;;5.53;1.63;;;;;;;26.77;47.42;98267.84;6042260;23;20153;-90
2022/08/26 05:11:14;;;;;;;4.10;1.17;;;;;;;26.84;48.79;98272.22;6041530;23;20154;-90
2022/08/26 05:13:40;;;;;;;8.83;2.17;;;;;;;26.87;47.62;98272.81;6041562;23;20154;-91
2022/08/26 05:16:09;;;;;;;9.33;1.80;;;;;;;26.87;47.40;98275.53;6016976;23;20167;-92
2022/08/26 05:18:37;;;;;;;3.80;1.50;;;;;;;27.07;48.06;98274.50;6041615;23;20158;-92
2022/08/26 05:21:03;;;;;;;7.57;1.73;;;;;;;27.11;47.10;98275.75;6017115;23;20233;-91
2022/08/26 05:23:32;;;;;;;5.10;1.43;;;;;;;27.20;47.11;98269.13;6016919;23;20192;-91
2022/08/26 05:25:59;;;;;;;5.78;1.40;;;;;;;27.36;46.90;98276.78;6016778;23;20186;-93
2022/08/26 05:28:27;;;;;;;7.53;1.70;;;;;;;27.48;46.40;98276.19;6016871;23;20162;-91
2022/08/26 05:30:54;;;;;;;8.85;1.88;;;;;;;27.58;46.77;98276.59;6016800;23;20158;-92
2022/08/26 05:33:20;;;;;;;2.78;1.10;;;;;;;27.62;47.26;98283.22;6016860;23;20182;-92
2022/08/26 05:35:46;;;;;;;9.25;1.65;;;;;;;27.67;47.59;98281.56;6016537;23;20201;-90
2022/08/26 05:38:14;;;;;;;12.77;2.13;;;;;;;27.74;47.08;98279.69;6016810;23;20162;-91
2022/08/26 05:40:46;;;;;;;6.40;1.70;;;;;;;27.81;47.08;98285.88;6016801;23;20226;-92
2022/08/26 05:43:12;;;;;;;10.90;1.35;;;;;;;27.94;47.10;98288.53;6016846;23;20538;-92
2022/08/26 05:45:44;;;;;;;7.47;1.02;;;;;;;28.04;47.06;98293.50;6041304;23;20174;-93
2022/08/26 05:48:10;;;;;;;7.03;2.40;;;;;;;28.05;46.82;98295.19;6017940;23;20150;-92
2022/08/26 05:50:42;;;;;;;9.55;1.13;;;;;;;28.15;46.77;98290.16;6016814;23;20566;-92
2022/08/26 05:53:09;;;;;;;7.00;1.70;;;;;;;28.13;45.84;98297.63;6016834;23;20157;-92
2022/08/26 05:55:44;;;;;;;7.78;1.30;;;;;;;28.13;46.59;98294.94;6041456;23;20596;-93
2022/08/26 05:58:10;;;;;;;10.60;1.77;;;;;;;28.18;45.88;98303.22;6016727;23;20154;-92
2022/08/26 06:00:36;;;;;;;10.30;1.60;;;;;;;28.33;46.52;98301.06;6016695;23;20162;-91
2022/08/26 06:03:01;;;;;;;12.07;1.40;;;;;;;28.47;46.42;98300.00;6041417;23;20546;-92
2022/08/26 06:05:27;;;;;;;6.35;1.77;;;;;;;28.68;46.71;98303.44;6041168;23;20479;-91
2022/08/26 06:08:12;;;;;;;13.30;2.05;;;;;;;28.80;46.70;98299.84;6016243;23;20189;-92
2022/08/26 06:10:51;;;;;;;8.20;2.00;;;;;;;28.87;45.06;98306.03;6017228;23;20150;-92
2022/08/26 06:13:19;;;;;;;9.57;1.48;;;;;;;28.96;44.54;98314.69;6041670;23;20570;-92
2022/08/26 06:15:47;;;;;;;4.13;1.10;;;;;;;28.95;44.35;98319.28;6041566;23;20154;-93
2022/08/26 06:18:15;;;;;;;9.07;1.40;;;;;;;29.05;45.18;98308.81;6016543;23;20165;-91
2022/08/26 06:20:45;;;;;;;10.10;1.85;;;;;;;29.14;46.18;98321.00;6016545;23;20153;-92
2022/08/26 06:25:56;;;;;;;6.72;0.98;;;;;;;29.30;44.93;98319.66;6041937;23;20250;-92
2022/08/26 06:28:23;;;;;;;4.75;1.10;;;;;;;29.25;44.07;98319.50;6016622;23;20550;-93
2022/08/26 06:30:49;;;;;;;11.35;2.17;;;;;;;29.15;44.32;98325.34;6041963;23;20154;-92
2022/08/26 06:33:14;;;;;;;4.10;1.85;;;;;;;29.12;43.63;98330.34;6016483;23;20264;-93
2022/08/26 06:35:41;;;;;;;4.55;1.73;;;;;;;29.11;44.11;98320.63;6016336;23;20173;-92
2022/08/26 06:38:09;;;;;;;5.32;2.28;;;;;;;28.80;44.02;98326.00;6016345;23;20161;-92
2022/08/26 06:40:47;;;;;;;3.28;1.30;;;;;;;28.79;44.06;98335.13;6016643;23;20161;-93
2022/08/26 06:43:14;;;;;;;5.35;1.85;;;;;;;28.83;44.73;98330.94;6016521;23;20157;-92
2022/08/26 06:45:39;;;;;;;4.60;1.52;;;;;;;28.86;44.86;98330.53;6016201;23;20188;-93
2022/08/26 06:48:06;;;;;;;6.63;1.83;;;;;;;28.89;45.35;98324.69;6041633;23;20169;-92
2022/08/26 06:50:33;;;;;;;10.25;1.45;;;;;;;29.07;45.39;98327.47;6041003;23;20154;-92
2022/08/26 06:52:58;;;;;;;5.15;1.55;;;;;;;29.08;45.14;98321.88;6016276;23;20172;-92
2022/08/26 06:55:24;;;;;;;8.50;1.65;;;;;;;29.08;44.09;98321.06;6041480;23;20153;-93
2022/08/26 06:57:49;;;;;;;8.57;1.70;;;;;;;29.16;43.65;98318.09;6016112;23;20638;-92
2022/08/26 07:00:16;;;;;;;5.75;1.30;;;;;;;29.44;43.70;98323.09;6016255;23;20669;-93
2022/08/26 07:02:42;;;;;;;6.43;1.52;;;;;;;29.73;43.02;98323.25;6016137;23;20158;-93
2022/08/26 07:05:08;;;;;;;8.88;1.95;;;;;;;30.04;41.42;98313.41;6016121;23;20621;-94
2022/08/26 07:07:34;;;;;;;8.32;0.95;;;;;;;30.37;40.93;98308.50;6016403;23;20157;-93
2022/08/26 07:09:59;;;;;;;2.72;1.17;;;;;;;30.50;39.43;98313.75;6016232;23;20196;-93
2022/08/26 07:12:25;;;;;;;11.82;1.73;;;;;;;30.64;41.06;98309.78;6040834;23;20165;-92
2022/08/26 07:14:51;;;;;;;4.80;0.93;;;;;;;30.83;38.68;98314.13;6016094;23;20578;-93
2022/08/26 07:17:17;;;;;;;8.02;1.73;;;;;;;30.93;39.91;98310.88;6016120;23;20162;-94
2022/08/26 07:19:47;;;;;;;3.67;1.50;;;;;;;31.19;39.01;98306.94;6017163;23;20316;-94
2022/08/26 07:22:12;;;;;;;4.07;1.05;;;;;;;31.34;38.11;98315.47;6016290;23;20169;-95
2022/08/26 07:24:41;;;;;;;5.47;1.80;;;;;;;31.23;37.97;98317.09;6015948;23;20185;-94
2022/08/26 07:27:12;;;;;;;5.07;1.13;;;;;;;31.21;37.46;98315.69;6016049;23;20153;-93
2022/08/26 07:29:38;;;;;;;7.70;1.63;;;;;;;31.14;38.15;98318.47;6015991;23;20150;-94
2022/08/26 07:32:05;;;;;;;4.53;1.38;;;;;;;31.22;38.00;98314.59;6016320;23;20165;-94
2022/08/26 07:34:31;;;;;;;5.55;1.17;;;;;;;31.20;37.45;98322.16;6015975;23;20192;-94
2022/08/26 07:36:56;;;;;;;5.20;1.30;;;;;;;31.38;37.60;98316.66;6015901;23;20170;-94
2022/08/26 07:39:23;;;;;;;16.08;1.80;;;;;;;31.44;37.65;98326.56;6015962;23;20702;-95
2022/08/26 07:41:50;;;;;;;5.35;1.92;;;;;;;31.36;36.17;98318.78;6015858;23;20158;-94
2022/08/26 07:44:16;;;;;;;11.20;1.80;;;;;;;31.16;36.76;98318.25;6015997;23;20194;-94
2022/08/26 07:46:41;;;;;;;9.13;1.10;;;;;;;31.15;36.27;98320.13;6015848;23;20205;-95
2022/08/26 07:49:07;;;;;;;8.25;1.20;;;;;;;31.29;36.01;98318.06;6015965;23;20171;-94
2022/08/26 07:51:33;;;;;;;3.25;1.10;;;;;;;31.25;36.23;98322.28;6016345;23;20174;-95
2022/08/26 07:53:58;;;;;;;5.82;1.58;;;;;;;31.19;37.09;98320.47;6040530;23;20192;-95
2022/08/26 07:56:24;;;;;;;5.95;1.30;;;;;;;31.21;35.32;98311.06;6016449;23;20237;-94
2022/08/26 07:58:51;;;;;;;8.23;1.27;;;;;;;31.23;35.07;98322.50;6015874;23;20679;-94
2022/08/26 08:01:18;;;;;;;5.57;1.17;;;;;;;31.11;36.43;98313.53;6015749;23;20161;-93
2022/08/26 08:03:43;;;;;;;4.95;0.90;;;;;;;30.89;36.29;98317.78;6015909;23;20582;-94
2022/08/26 08:06:09;;;;;;;2.53;1.00;;;;;;;30.82;36.25;98312.44;6015786;23;20214;-93
2022/08/26 08:08:34;;;;;;;4.07;0.93;;;;;;;30.81;36.49;98324.34;6016583;23;20578;-94
2022/08/26 08:11:01;;;;;;;7.43;1.63;;;;;;;30.73;36.68;98319.25;6015772;23;20158;-94
2022/08/26 08:13:26;;;;;;;4.32;1.95;;;;;;;30.63;36.01;98318.16;6040420;23;20575;-94
2022/08/26 08:15:53;;;;;;;5.10;0.90;;;;;;;30.72;37.36;98316.75;6015630;23;20154;-93
2022/08/26 08:18:18;;;;;;;2.17;0.85;;;;;;;30.76;37.80;98307.16;6015771;23;20209;-93
2022/08/26 08:20:44;;;;;;;6.38;1.00;;;;;;;30.76;36.82;98312.56;6040768;23;20146;-93
2022/08/26 08:23:10;;;;;;;4.00;0.95;;;;;;;30.88;36.58;98311.53;6015560;23;20157;-94
2022/08/26 08:25:37;;;;;;;7.22;1.27;;;;;;;30.89;36.13;98313.22;6040082;23;20657;-94
2022/08/26 08:28:03;;;;;;;6.57;1.10;;;;;;;30.99;36.78;98315.38;6015659;23;20174;-94
2022/08/26 08:30:29;;;;;;;8.73;1.65;;;;;;;30.97;36.41;98309.38;6015552;23;20599;-93
2022/08/26 08:32:55;;;;;;;5.43;1.52;;;;;;;30.90;36.87;98309.44;6015910;23;20165;-93
2022/08/26 08:35:21;;;;;;;4.85;1.38;;;;;;;30.66;35.79;98312.28;6015503;23;20198;-94
2022/08/26 08:37:52;;;;;;;10.45;1.88;;;;;;;30.72;36.83;98316.75;6015572;23;20328;-95
2022/08/26 08:40:19;;;;;;;2.60;1.30;;;;;;;30.92;36.50;98318.16;6015594;23;20153;-94
2022/08/26 08:43:05;;;;;;;7.88;1.77;;;;;;;31.03;36.39;98320.09;6016990;23;20547;-94
2022/08/26 08:45:39;;;;;;;9.45;1.65;;;;;;;30.98;36.01;98327.25;6015604;23;20204;-93
2022/08/26 08:48:30;;;;;;;6.35;1.92;;;;;;;30.77;37.01;98317.72;6015587;23;20171;-94
2022/08/26 08:51:13;;;;;;;6.47;1.55;;;;;;;30.64;35.36;98320.63;6015461;23;20578;-95
2022/08/26 08:53:41;;;;;;;7.28;1.98;;;;;;;30.73;34.64;98316.56;6015639;23;20189;-94
2022/08/26 08:56:31;;;;;;;5.43;1.77;;;;;;;30.73;35.40;98313.84;6015564;23;20150;-94
2022/08/26 08:59:12;;;;;;;7.55;1.63;;;;;;;30.76;34.99;98313.41;6015619;23;20170;-94
2022/08/26 09:02:05;;;;;;;5.63;1.45;;;;;;;30.79;35.38;98317.53;6016549;23;20496;-94
2022/08/26 09:04:50;;;;;;;4.15;1.48;;;;;;;30.88;34.67;98322.38;6015465;23;20178;-93
2022/08/26 09:07:47;;;;;;;3.47;1.00;;;;;;;30.58;35.37;98326.13;6015490;23;20158;-93
2022/08/26 09:10:40;;;;;;;3.55;1.05;;;;;;;30.68;34.84;98329.09;6014599;23;20158;-93
2022/08/26 09:13:10;;;;;;;18.02;4.03;;;;;;;30.09;40.62;98324.38;6015307;23;20158;-94
2022/08/26 09:15:45;;;;;;;8.00;2.75;;;;;;;29.89;41.71;98321.88;6015443;23;20142;-94
2022/08/26 09:18:30;;;;;;;16.45;2.72;;;;;;;29.94;43.26;98324.75;6015422;23;20150;-93
2022/08/26 09:21:03;;;;;;;5.25;2.10;;;;;;;29.82;43.88;98319.22;6015400;23;20154;-94
2022/08/26 09:23:31;;;;;;;7.85;2.53;;;;;;;29.83;44.40;98323.59;6015386;23;20575;-94
2022/08/26 09:26:11;;;;;;;7.68;2.75;;;;;;;29.94;45.30;98329.31;6015060;23;20208;-94
2022/08/26 09:28:43;;;;;;;6.72;2.45;;;;;;;29.91;47.31;98318.94;6015271;23;20164;-95
2022/08/26 09:31:22;;;;;;;6.10;1.98;;;;;;;29.97;47.96;98331.56;6015411;23;20165;-93
2022/08/26 09:33:48;;;;;;;9.15;2.47;;;;;;;29.96;50.05;98332.63;6015239;23;20172;-94
2022/08/26 09:36:22;;;;;;;12.43;3.05;;;;;;;29.62;50.58;98332.06;6015207;23;20241;-93
2022/08/26 09:38:52;;;;;;;12.45;3.15;;;;;;;29.61;51.59;98335.81;6014834;23;20581;-93
2022/08/26 09:41:20;;;;;;;8.93;2.72;;;;;;;29.65;52.64;98333.50;6015277;23;20182;-93
2022/08/26 09:44:08;;;;;;;10.63;3.42;;;;;;;29.83;51.34;98345.22;6015586;23;20193;-93
2022/08/26 09:46:34;;;;;;;9.93;2.72;;;;;;;29.73;50.99;98344.88;6017237;23;20240;-94
2022/08/26 09:49:19;;;;;;;5.93;2.53;;;;;;;29.76;51.21;98347.13;6016952;23;20157;-94
2022/08/26 09:51:45;;;;;;;4.25;2.38;;;;;;;29.77;50.01;98340.66;6016319;23;20544;-92
2022/08/26 09:54:25;;;;;;;5.10;2.25;;;;;;;29.66;51.49;98349.50;6041624;23;20181;-94
2022/08/26 09:56:51;;;;;;;18.15;4.40;;;;;;;29.65;52.75;98347.00;6016990;23;20184;-94
2022/08/26 09:59:29;;;;;;;11.05;2.85;;;;;;;29.68;53.38;98349.28;6018076;23;20165;-94
2022/08/26 10:01:54;;;;;;;14.63;3.13;;;;;;;29.60;53.58;98344.97;6016774;23;20154;-94
2022/08/26 10:04:30;;;;;;;10.13;2.88;;;;;;;29.61;55.15;98348.50;6016819;23;20176;-94
2022/08/26 10:07:11;;;;;;;;;;;;;;;;;;;;;
2022/08/26 10:10:14;;;;;;;;;;;;;;;;;;;;;
2022/08/26 10:20:35;;;;;;;4.32;1.63;;;;;;;29.29;49.50;98361.22;5926184;24;20200;-96
2022/08/26 10:23:23;;;;;;;4.90;1.60;;;;;;;29.25;48.61;98349.19;5971089;24;20632;-96
2022/08/26 10:26:09;;;;;;;3.72;1.85;;;;;;;29.13;47.66;98356.31;5940328;24;20194;-96
2022/08/26 10:28:56;;;;;;;6.80;1.33;;;;;;;29.03;45.99;98354.09;6027132;23;20237;-96
2022/08/26 10:31:43;;;;;;;4.20;1.58;;;;;;;28.89;46.72;98363.31;6027504;23;20157;-96
2022/08/26 10:34:12;;;;;;;10.07;1.95;;;;;;;28.82;46.57;98362.53;6021936;23;20485;-96
2022/08/26 10:36:56;;;;;;;6.85;1.80;;;;;;;28.76;46.16;98357.13;6024065;23;20177;-96
2022/08/26 10:39:35;;;;;;;11.93;1.45;;;;;;;28.80;46.61;98353.00;6018977;23;20146;-96
2022/08/26 10:42:23;;;;;;;6.88;1.35;;;;;;;28.81;46.05;98358.16;6018451;23;20449;-96
2022/08/26 10:44:52;;;;;;;10.27;1.60;;;;;;;28.76;45.95;98346.34;6016650;23;20189;-94
2022/08/26 10:47:23;;;;;;;7.70;2.08;;;;;;;28.91;47.50;98347.72;6016469;23;20598;-94
2022/08/26 10:49:54;;;;;;;6.38;2.58;;;;;;;29.04;48.17;98339.53;6016612;23;20149;-95
2022/08/26 10:52:25;;;;;;;7.47;2.10;;;;;;;29.14;48.37;98333.69;6016425;23;20150;-94
2022/08/26 10:55:05;;;;;;;8.32;1.58;;;;;;;29.28;45.00;98329.03;6015871;23;20150;-95
2022/08/26 10:57:54;;;;;;;2.05;1.05;;;;;;;29.61;45.74;98324.22;6016393;23;20233;-94
2022/08/26 11:03:44;;;;;;;2.88;1.23;;;;;;;30.25;43.78;98315.66;6041990;23;20177;-93
2022/08/26 11:06:21;;;;;;;13.07;1.65;;;;;;;30.51;42.23;98315.38;6016243;23;20229;-94
2022/08/26 11:08:55;;;;;;;8.15;1.83;;;;;;;30.92;42.95;98311.94;6017236;23;20517;-94
2022/08/26 11:11:39;;;;;;;8.38;1.67;;;;;;;31.10;40.99;98309.19;6016402;23;20598;-94
2022/08/26 11:14:37;;;;;;;5.57;2.00;;;;;;;31.29;37.93;98302.59;6017316;23;20165;-94
2022/08/26 11:17:07;;;;;;;11.27;1.88;;;;;;;31.47;39.79;98304.47;6015137;23;20161;-93
2022/08/26 11:19:40;;;;;;;5.78;1.42;;;;;;;31.40;35.74;98306.41;6016347;23;20146;-93
2022/08/26 11:22:11;;;;;;;11.93;2.38;;;;;;;31.60;35.85;98304.22;6016165;23;20162;-94
2022/08/26 11:24:48;;;;;;;3.22;1.45;;;;;;;31.68;34.59;98298.47;6016076;23;20571;-94
2022/08/26 11:27:25;;;;;;;6.32;2.58;;;;;;;31.73;35.73;98293.16;6017240;23;20154;-96
2022/08/26 11:30:27;;;;;;;8.45;2.67;;;;;;;31.70;34.46;98290.91;6016338;23;20173;-95
2022/08/26 11:33:39;;;;;;;4.28;1.77;;;;;;;31.90;33.77;98293.25;6015707;23;20154;-95
2022/08/26 11:36:05;;;;;;;6.05;2.08;;;;;;;31.92;32.76;98297.38;6015604;23;20662;-95
2022/08/26 11:38:55;;;;;;;2.55;1.20;;;;;;;31.84;33.13;98288.78;6016184;23;20162;-93
2022/08/26 11:41:41;;;;;;;5.40;2.42;;;;;;;31.93;33.16;98292.78;6016148;23;20150;-95
2022/08/26 11:44:35;;;;;;;9.40;1.98;;;;;;;31.94;33.62;98294.44;6015941;23;20164;-95
2022/08/26 11:47:26;;;;;;;16.90;2.38;;;;;;;32.22;32.24;98291.81;5994158;23;20222;-95
2022/08/26 11:50:31;;;;;;;11.60;2.05;;;;;;;32.18;32.65;98293.38;6016290;23;20150;-96
2022/08/26 11:55:52;;;;;;;2.97;1.48;;;;;;;32.20;32.09;98294.78;6040767;23;20177;-95
2022/08/26 11:58:19;;;;;;;3.53;1.67;;;;;;;32.25;31.27;98293.22;6016083;23;20248;-95
2022/08/26 12:00:59;;;;;;;7.00;1.40;;;;;;;32.36;32.10;98287.78;6016482;23;20169;-96
2022/08/26 12:03:37;;;;;;;7.10;1.85;;;;;;;32.53;32.35;98285.97;6015917;23;20157;-95
2022/08/26 12:06:34;;;;;;;13.63;2.17;;;;;;;32.65;31.34;98275.91;6015674;23;20177;-96